sensor_id;sensor_type;location;lat;lon;timestamp;P1;durP1;ratioP1;P2;durP2;ratioP2
5900;SDS011;2976;49.764;9.796;2022-07-29T00:00:57;5.80;;;2.00;;
5900;SDS011;2976;49.764;9.796;2022-07-29T00:03:23;3.53;;;1.40;;
5900;SDS011;2976;49.764;9.796;2022-07-29T00:05:48;4.60;;;1.90;;
5900;SDS011;2976;49.764;9.796;2022-07-29T00:08:14;3.67;;;1.70;;
5900;SDS011;2976;49.764;9.796;2022-07-29T00:10:40;10.47;;;1.70;;
5900;SDS011;2976;49.764;9.796;2022-07-29T00:13:06;5.67;;;1.60;;
5900;SDS011;2976;49.764;9.796;2022-07-29T00:15:32;8.83;;;1.50;;
5900;SDS011;2976;49.764;9.796;2022-07-29T00:17:58;6.10;;;2.17;;
5900;SDS011;2976;49.764;9.796;2022-07-29T00:20:23;2.27;;;2.00;;
5900;SDS011;2976;49.764;9.796;2022-07-29T00:22:49;5.90;;;2.20;;
5900;SDS011;2976;49.764;9.796;2022-07-29T00:25:14;7.13;;;2.43;;
5900;SDS011;2976;49.764;9.796;2022-07-29T00:27:40;4.50;;;1.97;;
5900;SDS011;2976;49.764;9.796;2022-07-29T00:30:06;4.20;;;2.53;;
5900;SDS011;2976;49.764;9.796;2022-07-29T00:32:32;3.73;;;1.57;;
5900;SDS011;2976;49.764;9.796;2022-07-29T00:34:58;3.73;;;1.90;;
5900;SDS011;2976;49.764;9.796;2022-07-29T00:37:42;6.10;;;2.63;;
5900;SDS011;2976;49.764;9.796;2022-07-29T00:40:08;5.00;;;1.93;;
5900;SDS011;2976;49.764;9.796;2022-07-29T00:42:44;3.10;;;2.00;;
5900;SDS011;2976;49.764;9.796;2022-07-29T00:45:10;9.13;;;2.00;;
5900;SDS011;2976;49.764;9.796;2022-07-29T00:47:36;4.20;;;1.93;;
5900;SDS011;2976;49.764;9.796;2022-07-29T00:50:03;4.90;;;2.00;;
5900;SDS011;2976;49.764;9.796;2022-07-29T00:52:29;5.43;;;2.03;;
5900;SDS011;2976;49.764;9.796;2022-07-29T00:54:55;1.90;;;1.73;;
5900;SDS011;2976;49.764;9.796;2022-07-29T00:57:21;5.07;;;2.10;;
5900;SDS011;2976;49.764;9.796;2022-07-29T00:59:47;5.93;;;2.03;;
5900;SDS011;2976;49.764;9.796;2022-07-29T01:02:12;2.47;;;1.93;;
5900;SDS011;2976;49.764;9.796;2022-07-29T01:04:38;3.13;;;1.80;;
5900;SDS011;2976;49.764;9.796;2022-07-29T01:07:05;5.37;;;2.40;;
5900;SDS011;2976;49.764;9.796;2022-07-29T01:09:32;8.80;;;2.80;;
5900;SDS011;2976;49.764;9.796;2022-07-29T01:11:58;5.13;;;2.50;;
5900;SDS011;2976;49.764;9.796;2022-07-29T01:14:25;4.47;;;2.17;;
5900;SDS011;2976;49.764;9.796;2022-07-29T01:16:51;2.97;;;2.50;;
5900;SDS011;2976;49.764;9.796;2022-07-29T01:19:33;10.07;;;2.63;;
5900;SDS011;2976;49.764;9.796;2022-07-29T01:22:25;5.13;;;2.63;;
5900;SDS011;2976;49.764;9.796;2022-07-29T01:27:48;5.83;;;2.33;;
5900;SDS011;2976;49.764;9.796;2022-07-29T01:30:28;2.97;;;2.40;;
5900;SDS011;2976;49.764;9.796;2022-07-29T01:32:56;4.90;;;1.97;;
5900;SDS011;2976;49.764;9.796;2022-07-29T01:35:28;2.73;;;2.50;;
5900;SDS011;2976;49.764;9.796;2022-07-29T01:38:10;4.00;;;2.27;;
5900;SDS011;2976;49.764;9.796;2022-07-29T01:40:52;5.43;;;2.63;;
5900;SDS011;2976;49.764;9.796;2022-07-29T01:43:31;5.60;;;2.63;;
5900;SDS011;2976;49.764;9.796;2022-07-29T01:46:14;2.93;;;2.10;;
5900;SDS011;2976;49.764;9.796;2022-07-29T01:48:47;5.17;;;2.53;;
5900;SDS011;2976;49.764;9.796;2022-07-29T01:51:19;7.73;;;2.80;;
5900;SDS011;2976;49.764;9.796;2022-07-29T01:56:31;4.70;;;2.67;;
5900;SDS011;2976;49.764;9.796;2022-07-29T01:58:59;3.93;;;2.50;;
5900;SDS011;2976;49.764;9.796;2022-07-29T02:01:27;3.83;;;2.67;;
5900;SDS011;2976;49.764;9.796;2022-07-29T02:03:55;5.97;;;3.20;;
5900;SDS011;2976;49.764;9.796;2022-07-29T02:06:22;8.90;;;2.60;;
5900;SDS011;2976;49.764;9.796;2022-07-29T02:08:48;5.57;;;2.70;;
5900;SDS011;2976;49.764;9.796;2022-07-29T02:11:16;4.90;;;2.80;;
5900;SDS011;2976;49.764;9.796;2022-07-29T02:13:42;6.83;;;2.60;;
5900;SDS011;2976;49.764;9.796;2022-07-29T02:16:09;4.97;;;4.20;;
5900;SDS011;2976;49.764;9.796;2022-07-29T02:18:35;6.20;;;2.70;;
5900;SDS011;2976;49.764;9.796;2022-07-29T02:21:04;4.23;;;2.57;;
5900;SDS011;2976;49.764;9.796;2022-07-29T02:23:30;5.53;;;2.50;;
5900;SDS011;2976;49.764;9.796;2022-07-29T02:25:57;4.20;;;2.47;;
5900;SDS011;2976;49.764;9.796;2022-07-29T02:28:28;4.10;;;2.70;;
5900;SDS011;2976;49.764;9.796;2022-07-29T02:30:57;4.47;;;2.80;;
5900;SDS011;2976;49.764;9.796;2022-07-29T02:33:25;4.67;;;2.70;;
5900;SDS011;2976;49.764;9.796;2022-07-29T02:35:52;16.67;;;4.07;;
5900;SDS011;2976;49.764;9.796;2022-07-29T02:38:18;6.97;;;3.40;;
5900;SDS011;2976;49.764;9.796;2022-07-29T02:41:09;11.03;;;3.87;;
5900;SDS011;2976;49.764;9.796;2022-07-29T02:43:36;10.00;;;3.67;;
5900;SDS011;2976;49.764;9.796;2022-07-29T02:46:04;4.10;;;2.57;;
5900;SDS011;2976;49.764;9.796;2022-07-29T02:48:34;2.47;;;1.93;;
5900;SDS011;2976;49.764;9.796;2022-07-29T02:51:07;6.13;;;3.10;;
5900;SDS011;2976;49.764;9.796;2022-07-29T02:53:38;8.87;;;2.87;;
5900;SDS011;2976;49.764;9.796;2022-07-29T02:56:07;7.87;;;2.27;;
5900;SDS011;2976;49.764;9.796;2022-07-29T02:58:38;4.60;;;2.70;;
5900;SDS011;2976;49.764;9.796;2022-07-29T03:01:20;6.57;;;3.13;;
5900;SDS011;2976;49.764;9.796;2022-07-29T03:03:48;6.43;;;3.00;;
5900;SDS011;2976;49.764;9.796;2022-07-29T03:06:16;5.30;;;3.00;;
5900;SDS011;2976;49.764;9.796;2022-07-29T03:08:43;4.57;;;2.67;;
5900;SDS011;2976;49.764;9.796;2022-07-29T03:11:10;5.37;;;2.40;;
5900;SDS011;2976;49.764;9.796;2022-07-29T03:13:37;3.53;;;2.50;;
5900;SDS011;2976;49.764;9.796;2022-07-29T03:16:03;4.40;;;2.10;;
5900;SDS011;2976;49.764;9.796;2022-07-29T03:18:30;5.50;;;2.90;;
5900;SDS011;2976;49.764;9.796;2022-07-29T03:20:57;6.73;;;2.53;;
5900;SDS011;2976;49.764;9.796;2022-07-29T03:23:23;6.63;;;2.20;;
5900;SDS011;2976;49.764;9.796;2022-07-29T03:25:49;2.97;;;2.30;;
5900;SDS011;2976;49.764;9.796;2022-07-29T03:28:15;4.20;;;2.30;;
5900;SDS011;2976;49.764;9.796;2022-07-29T03:30:41;4.33;;;2.60;;
5900;SDS011;2976;49.764;9.796;2022-07-29T03:33:06;7.73;;;3.20;;
5900;SDS011;2976;49.764;9.796;2022-07-29T03:35:32;4.30;;;2.67;;
5900;SDS011;2976;49.764;9.796;2022-07-29T03:37:58;3.67;;;2.53;;
5900;SDS011;2976;49.764;9.796;2022-07-29T03:40:35;4.83;;;2.70;;
5900;SDS011;2976;49.764;9.796;2022-07-29T03:43:02;3.87;;;2.60;;
5900;SDS011;2976;49.764;9.796;2022-07-29T03:45:31;6.83;;;2.87;;
5900;SDS011;2976;49.764;9.796;2022-07-29T03:48:00;5.93;;;2.30;;
5900;SDS011;2976;49.764;9.796;2022-07-29T03:50:30;7.03;;;2.73;;
5900;SDS011;2976;49.764;9.796;2022-07-29T03:52:56;4.73;;;2.33;;
5900;SDS011;2976;49.764;9.796;2022-07-29T03:55:23;3.50;;;2.20;;
5900;SDS011;2976;49.764;9.796;2022-07-29T03:57:49;6.47;;;3.10;;
5900;SDS011;2976;49.764;9.796;2022-07-29T04:00:15;4.03;;;2.70;;
5900;SDS011;2976;49.764;9.796;2022-07-29T04:02:41;5.83;;;2.80;;
5900;SDS011;2976;49.764;9.796;2022-07-29T04:05:12;3.60;;;2.57;;
5900;SDS011;2976;49.764;9.796;2022-07-29T04:07:38;5.83;;;3.10;;
5900;SDS011;2976;49.764;9.796;2022-07-29T04:10:03;3.37;;;2.90;;
5900;SDS011;2976;49.764;9.796;2022-07-29T04:12:29;8.13;;;3.17;;
5900;SDS011;2976;49.764;9.796;2022-07-29T04:14:55;12.63;;;2.90;;
5900;SDS011;2976;49.764;9.796;2022-07-29T04:17:20;11.73;;;3.17;;
5900;SDS011;2976;49.764;9.796;2022-07-29T04:19:46;5.70;;;2.80;;
5900;SDS011;2976;49.764;9.796;2022-07-29T04:22:11;6.77;;;2.20;;
5900;SDS011;2976;49.764;9.796;2022-07-29T04:24:37;4.43;;;2.40;;
5900;SDS011;2976;49.764;9.796;2022-07-29T04:27:02;5.97;;;2.80;;
5900;SDS011;2976;49.764;9.796;2022-07-29T04:29:28;5.30;;;2.83;;
5900;SDS011;2976;49.764;9.796;2022-07-29T04:31:53;5.83;;;2.40;;
5900;SDS011;2976;49.764;9.796;2022-07-29T04:34:19;12.47;;;2.70;;
5900;SDS011;2976;49.764;9.796;2022-07-29T04:36:44;10.90;;;3.03;;
5900;SDS011;2976;49.764;9.796;2022-07-29T04:39:10;7.23;;;3.10;;
5900;SDS011;2976;49.764;9.796;2022-07-29T04:41:35;5.87;;;2.70;;
5900;SDS011;2976;49.764;9.796;2022-07-29T04:44:02;5.40;;;3.00;;
5900;SDS011;2976;49.764;9.796;2022-07-29T04:46:30;7.97;;;2.63;;
5900;SDS011;2976;49.764;9.796;2022-07-29T04:48:56;3.40;;;2.50;;
5900;SDS011;2976;49.764;9.796;2022-07-29T04:51:21;4.53;;;3.40;;
5900;SDS011;2976;49.764;9.796;2022-07-29T04:53:47;8.10;;;3.03;;
5900;SDS011;2976;49.764;9.796;2022-07-29T04:56:12;6.30;;;2.27;;
5900;SDS011;2976;49.764;9.796;2022-07-29T04:58:38;6.63;;;2.90;;
5900;SDS011;2976;49.764;9.796;2022-07-29T05:01:03;4.00;;;3.00;;
5900;SDS011;2976;49.764;9.796;2022-07-29T05:03:29;6.20;;;2.67;;
5900;SDS011;2976;49.764;9.796;2022-07-29T05:05:55;4.27;;;2.80;;
5900;SDS011;2976;49.764;9.796;2022-07-29T05:08:20;7.60;;;3.37;;
5900;SDS011;2976;49.764;9.796;2022-07-29T05:10:46;9.50;;;2.67;;
5900;SDS011;2976;49.764;9.796;2022-07-29T05:13:12;7.63;;;2.60;;
5900;SDS011;2976;49.764;9.796;2022-07-29T05:15:37;6.63;;;2.67;;
5900;SDS011;2976;49.764;9.796;2022-07-29T05:18:03;6.67;;;2.70;;
5900;SDS011;2976;49.764;9.796;2022-07-29T05:20:29;5.53;;;2.60;;
5900;SDS011;2976;49.764;9.796;2022-07-29T05:22:56;5.77;;;2.47;;
5900;SDS011;2976;49.764;9.796;2022-07-29T05:25:25;10.30;;;3.00;;
5900;SDS011;2976;49.764;9.796;2022-07-29T05:27:51;6.10;;;2.37;;
5900;SDS011;2976;49.764;9.796;2022-07-29T05:30:17;10.90;;;3.13;;
5900;SDS011;2976;49.764;9.796;2022-07-29T05:32:43;9.17;;;3.40;;
5900;SDS011;2976;49.764;9.796;2022-07-29T05:35:08;4.83;;;2.33;;
5900;SDS011;2976;49.764;9.796;2022-07-29T05:37:34;8.53;;;2.53;;
5900;SDS011;2976;49.764;9.796;2022-07-29T05:40:01;11.37;;;3.03;;
5900;SDS011;2976;49.764;9.796;2022-07-29T05:42:27;4.23;;;2.97;;
5900;SDS011;2976;49.764;9.796;2022-07-29T05:44:54;6.57;;;2.80;;
5900;SDS011;2976;49.764;9.796;2022-07-29T05:47:19;4.10;;;2.40;;
5900;SDS011;2976;49.764;9.796;2022-07-29T05:49:45;6.07;;;2.30;;
5900;SDS011;2976;49.764;9.796;2022-07-29T05:52:11;2.60;;;1.93;;
5900;SDS011;2976;49.764;9.796;2022-07-29T05:54:37;6.63;;;2.40;;
5900;SDS011;2976;49.764;9.796;2022-07-29T05:57:04;8.00;;;2.50;;
5900;SDS011;2976;49.764;9.796;2022-07-29T05:59:30;3.20;;;2.40;;
5900;SDS011;2976;49.764;9.796;2022-07-29T06:01:56;6.27;;;2.80;;
5900;SDS011;2976;49.764;9.796;2022-07-29T06:04:22;7.07;;;2.53;;
5900;SDS011;2976;49.764;9.796;2022-07-29T06:06:47;3.77;;;2.20;;
5900;SDS011;2976;49.764;9.796;2022-07-29T06:09:13;3.37;;;2.13;;
5900;SDS011;2976;49.764;9.796;2022-07-29T06:11:39;10.27;;;2.73;;
5900;SDS011;2976;49.764;9.796;2022-07-29T06:14:05;3.53;;;2.37;;
5900;SDS011;2976;49.764;9.796;2022-07-29T06:16:30;9.10;;;2.50;;
5900;SDS011;2976;49.764;9.796;2022-07-29T06:18:56;4.87;;;2.50;;
5900;SDS011;2976;49.764;9.796;2022-07-29T06:21:21;6.40;;;2.73;;
5900;SDS011;2976;49.764;9.796;2022-07-29T06:23:47;6.93;;;2.40;;
5900;SDS011;2976;49.764;9.796;2022-07-29T06:26:12;3.23;;;1.93;;
5900;SDS011;2976;49.764;9.796;2022-07-29T06:28:38;7.83;;;2.37;;
5900;SDS011;2976;49.764;9.796;2022-07-29T06:31:04;4.00;;;2.23;;
5900;SDS011;2976;49.764;9.796;2022-07-29T06:33:30;3.13;;;2.40;;
5900;SDS011;2976;49.764;9.796;2022-07-29T06:35:56;4.17;;;2.67;;
5900;SDS011;2976;49.764;9.796;2022-07-29T06:38:21;7.00;;;2.40;;
5900;SDS011;2976;49.764;9.796;2022-07-29T06:40:47;4.67;;;2.50;;
5900;SDS011;2976;49.764;9.796;2022-07-29T06:43:32;3.90;;;1.70;;
5900;SDS011;2976;49.764;9.796;2022-07-29T06:46:03;2.17;;;1.97;;
5900;SDS011;2976;49.764;9.796;2022-07-29T06:48:31;4.40;;;1.73;;
5900;SDS011;2976;49.764;9.796;2022-07-29T06:50:58;6.73;;;2.50;;
5900;SDS011;2976;49.764;9.796;2022-07-29T06:53:25;3.97;;;2.53;;
5900;SDS011;2976;49.764;9.796;2022-07-29T06:55:51;8.27;;;2.40;;
5900;SDS011;2976;49.764;9.796;2022-07-29T06:58:16;5.77;;;2.37;;
5900;SDS011;2976;49.764;9.796;2022-07-29T07:00:45;9.00;;;2.07;;
5900;SDS011;2976;49.764;9.796;2022-07-29T07:03:11;9.97;;;2.73;;
5900;SDS011;2976;49.764;9.796;2022-07-29T07:05:37;4.80;;;2.30;;
5900;SDS011;2976;49.764;9.796;2022-07-29T07:08:03;6.33;;;2.30;;
5900;SDS011;2976;49.764;9.796;2022-07-29T07:10:29;2.93;;;1.70;;
5900;SDS011;2976;49.764;9.796;2022-07-29T07:12:55;4.60;;;2.43;;
5900;SDS011;2976;49.764;9.796;2022-07-29T07:15:20;3.37;;;2.63;;
5900;SDS011;2976;49.764;9.796;2022-07-29T07:17:47;2.73;;;2.27;;
5900;SDS011;2976;49.764;9.796;2022-07-29T07:20:14;2.83;;;2.10;;
5900;SDS011;2976;49.764;9.796;2022-07-29T07:22:40;6.90;;;2.63;;
5900;SDS011;2976;49.764;9.796;2022-07-29T07:25:05;6.83;;;2.10;;
5900;SDS011;2976;49.764;9.796;2022-07-29T07:27:31;5.90;;;2.43;;
5900;SDS011;2976;49.764;9.796;2022-07-29T07:29:57;7.47;;;2.30;;
5900;SDS011;2976;49.764;9.796;2022-07-29T07:32:22;3.80;;;2.47;;
5900;SDS011;2976;49.764;9.796;2022-07-29T07:34:48;9.77;;;2.60;;
5900;SDS011;2976;49.764;9.796;2022-07-29T07:37:14;8.57;;;2.20;;
5900;SDS011;2976;49.764;9.796;2022-07-29T07:39:40;2.90;;;2.13;;
5900;SDS011;2976;49.764;9.796;2022-07-29T07:42:06;4.60;;;2.27;;
5900;SDS011;2976;49.764;9.796;2022-07-29T07:44:31;2.30;;;2.10;;
5900;SDS011;2976;49.764;9.796;2022-07-29T07:46:57;8.23;;;2.50;;
5900;SDS011;2976;49.764;9.796;2022-07-29T07:49:23;5.20;;;2.00;;
5900;SDS011;2976;49.764;9.796;2022-07-29T07:51:48;5.90;;;2.10;;
5900;SDS011;2976;49.764;9.796;2022-07-29T07:54:14;5.80;;;2.40;;
5900;SDS011;2976;49.764;9.796;2022-07-29T07:56:40;7.90;;;2.50;;
5900;SDS011;2976;49.764;9.796;2022-07-29T07:59:05;4.47;;;2.20;;
5900;SDS011;2976;49.764;9.796;2022-07-29T08:01:31;5.30;;;2.33;;
5900;SDS011;2976;49.764;9.796;2022-07-29T08:03:56;4.67;;;2.27;;
5900;SDS011;2976;49.764;9.796;2022-07-29T08:06:22;2.33;;;2.10;;
5900;SDS011;2976;49.764;9.796;2022-07-29T08:08:49;2.93;;;2.60;;
5900;SDS011;2976;49.764;9.796;2022-07-29T08:11:15;7.33;;;2.20;;
5900;SDS011;2976;49.764;9.796;2022-07-29T08:13:41;3.30;;;2.33;;
5900;SDS011;2976;49.764;9.796;2022-07-29T08:16:08;3.30;;;2.30;;
5900;SDS011;2976;49.764;9.796;2022-07-29T08:18:37;3.40;;;2.17;;
5900;SDS011;2976;49.764;9.796;2022-07-29T08:21:04;4.33;;;2.57;;
5900;SDS011;2976;49.764;9.796;2022-07-29T08:23:30;3.40;;;2.10;;
5900;SDS011;2976;49.764;9.796;2022-07-29T08:26:08;9.20;;;2.47;;
5900;SDS011;2976;49.764;9.796;2022-07-29T08:28:35;4.40;;;2.10;;
5900;SDS011;2976;49.764;9.796;2022-07-29T08:31:10;4.30;;;2.50;;
5900;SDS011;2976;49.764;9.796;2022-07-29T08:33:36;2.20;;;2.10;;
5900;SDS011;2976;49.764;9.796;2022-07-29T08:36:01;3.13;;;2.30;;
5900;SDS011;2976;49.764;9.796;2022-07-29T08:38:27;8.23;;;2.33;;
5900;SDS011;2976;49.764;9.796;2022-07-29T08:40:53;3.00;;;2.17;;
5900;SDS011;2976;49.764;9.796;2022-07-29T08:43:19;5.50;;;2.57;;
5900;SDS011;2976;49.764;9.796;2022-07-29T08:45:45;3.60;;;2.53;;
5900;SDS011;2976;49.764;9.796;2022-07-29T08:48:12;5.93;;;2.77;;
5900;SDS011;2976;49.764;9.796;2022-07-29T08:50:39;8.23;;;2.70;;
5900;SDS011;2976;49.764;9.796;2022-07-29T08:53:06;3.70;;;1.90;;
5900;SDS011;2976;49.764;9.796;2022-07-29T08:55:35;3.03;;;2.20;;
5900;SDS011;2976;49.764;9.796;2022-07-29T08:58:03;2.23;;;1.93;;
5900;SDS011;2976;49.764;9.796;2022-07-29T09:00:30;2.57;;;2.23;;
5900;SDS011;2976;49.764;9.796;2022-07-29T09:02:57;6.27;;;2.77;;
5900;SDS011;2976;49.764;9.796;2022-07-29T09:05:24;2.40;;;2.20;;
5900;SDS011;2976;49.764;9.796;2022-07-29T09:07:51;5.77;;;2.30;;
5900;SDS011;2976;49.764;9.796;2022-07-29T09:10:17;2.50;;;2.17;;
5900;SDS011;2976;49.764;9.796;2022-07-29T09:12:43;5.53;;;1.87;;
5900;SDS011;2976;49.764;9.796;2022-07-29T09:15:08;4.23;;;2.17;;
5900;SDS011;2976;49.764;9.796;2022-07-29T09:17:44;2.50;;;2.17;;
5900;SDS011;2976;49.764;9.796;2022-07-29T09:20:15;6.23;;;2.87;;
5900;SDS011;2976;49.764;9.796;2022-07-29T09:22:42;3.33;;;2.23;;
5900;SDS011;2976;49.764;9.796;2022-07-29T09:25:08;6.53;;;2.80;;
5900;SDS011;2976;49.764;9.796;2022-07-29T09:27:37;2.30;;;2.10;;
5900;SDS011;2976;49.764;9.796;2022-07-29T09:30:04;7.57;;;2.33;;
5900;SDS011;2976;49.764;9.796;2022-07-29T09:32:31;12.40;;;3.10;;
5900;SDS011;2976;49.764;9.796;2022-07-29T09:37:43;6.43;;;2.77;;
5900;SDS011;2976;49.764;9.796;2022-07-29T09:40:19;10.10;;;3.33;;
5900;SDS011;2976;49.764;9.796;2022-07-29T09:42:46;12.60;;;3.30;;
5900;SDS011;2976;49.764;9.796;2022-07-29T09:45:13;9.97;;;3.43;;
5900;SDS011;2976;49.764;9.796;2022-07-29T09:47:58;6.03;;;3.33;;
5900;SDS011;2976;49.764;9.796;2022-07-29T09:50:38;5.40;;;3.43;;
5900;SDS011;2976;49.764;9.796;2022-07-29T09:53:07;6.67;;;3.90;;
5900;SDS011;2976;49.764;9.796;2022-07-29T09:55:45;7.33;;;3.60;;
5900;SDS011;2976;49.764;9.796;2022-07-29T09:58:16;12.50;;;4.00;;
5900;SDS011;2976;49.764;9.796;2022-07-29T10:00:47;6.07;;;3.43;;
5900;SDS011;2976;49.764;9.796;2022-07-29T10:03:13;6.37;;;3.63;;
5900;SDS011;2976;49.764;9.796;2022-07-29T10:05:40;7.47;;;3.87;;
5900;SDS011;2976;49.764;9.796;2022-07-29T10:08:07;9.33;;;3.60;;
5900;SDS011;2976;49.764;9.796;2022-07-29T10:10:34;11.17;;;3.73;;
5900;SDS011;2976;49.764;9.796;2022-07-29T10:13:03;8.90;;;3.37;;
5900;SDS011;2976;49.764;9.796;2022-07-29T10:15:31;10.40;;;4.10;;
5900;SDS011;2976;49.764;9.796;2022-07-29T10:17:58;10.63;;;4.17;;
5900;SDS011;2976;49.764;9.796;2022-07-29T10:20:25;5.83;;;3.40;;
5900;SDS011;2976;49.764;9.796;2022-07-29T10:22:52;3.43;;;2.97;;
5900;SDS011;2976;49.764;9.796;2022-07-29T10:25:19;2.63;;;2.40;;
5900;SDS011;2976;49.764;9.796;2022-07-29T10:27:45;3.37;;;2.50;;
5900;SDS011;2976;49.764;9.796;2022-07-29T10:30:13;4.47;;;2.60;;
5900;SDS011;2976;49.764;9.796;2022-07-29T10:32:49;6.10;;;2.80;;
5900;SDS011;2976;49.764;9.796;2022-07-29T10:38:28;9.83;;;2.60;;
5900;SDS011;2976;49.764;9.796;2022-07-29T10:43:57;8.20;;;2.63;;
5900;SDS011;2976;49.764;9.796;2022-07-29T10:46:25;5.70;;;2.50;;
5900;SDS011;2976;49.764;9.796;2022-07-29T10:51:58;3.23;;;2.40;;
5900;SDS011;2976;49.764;9.796;2022-07-29T10:54:37;6.33;;;2.57;;
5900;SDS011;2976;49.764;9.796;2022-07-29T11:07:32;6.13;;;2.63;;
5900;SDS011;2976;49.764;9.796;2022-07-29T11:15:10;3.97;;;2.50;;
5900;SDS011;2976;49.764;9.796;2022-07-29T11:31:16;7.60;;;2.63;;
5900;SDS011;2976;49.764;9.796;2022-07-29T11:33:56;2.40;;;2.20;;
5900;SDS011;2976;49.764;9.796;2022-07-29T11:36:22;3.63;;;1.83;;
5900;SDS011;2976;49.764;9.796;2022-07-29T11:38:47;7.90;;;1.90;;
5900;SDS011;2976;49.764;9.796;2022-07-29T11:41:20;4.80;;;2.03;;
5900;SDS011;2976;49.764;9.796;2022-07-29T11:47:04;4.67;;;1.80;;
5900;SDS011;2976;49.764;9.796;2022-07-29T11:49:08;7.77;;;2.53;;
5900;SDS011;2976;49.764;9.796;2022-07-29T11:51:38;4.00;;;2.13;;
5900;SDS011;2976;49.764;9.796;2022-07-29T11:54:05;2.47;;;2.27;;
5900;SDS011;2976;49.764;9.796;2022-07-29T11:56:32;2.60;;;2.20;;
5900;SDS011;2976;49.764;9.796;2022-07-29T11:59:06;3.10;;;1.90;;
5900;SDS011;2976;49.764;9.796;2022-07-29T12:01:34;3.47;;;2.07;;
5900;SDS011;2976;49.764;9.796;2022-07-29T12:04:06;3.90;;;1.87;;
5900;SDS011;2976;49.764;9.796;2022-07-29T12:06:36;8.40;;;2.40;;
5900;SDS011;2976;49.764;9.796;2022-07-29T12:09:08;3.50;;;2.67;;
5900;SDS011;2976;49.764;9.796;2022-07-29T12:11:33;2.60;;;2.40;;
5900;SDS011;2976;49.764;9.796;2022-07-29T12:13:59;7.37;;;2.50;;
5900;SDS011;2976;49.764;9.796;2022-07-29T12:16:34;2.67;;;2.27;;
5900;SDS011;2976;49.764;9.796;2022-07-29T12:19:01;4.23;;;2.43;;
5900;SDS011;2976;49.764;9.796;2022-07-29T12:21:48;5.13;;;2.43;;
5900;SDS011;2976;49.764;9.796;2022-07-29T12:24:15;4.13;;;2.00;;
5900;SDS011;2976;49.764;9.796;2022-07-29T12:29:17;3.40;;;1.97;;
5900;SDS011;2976;49.764;9.796;2022-07-29T12:31:44;3.30;;;1.83;;
5900;SDS011;2976;49.764;9.796;2022-07-29T12:34:10;4.00;;;2.53;;
5900;SDS011;2976;49.764;9.796;2022-07-29T12:36:37;11.63;;;2.03;;
5900;SDS011;2976;49.764;9.796;2022-07-29T12:39:03;2.37;;;2.07;;
5900;SDS011;2976;49.764;9.796;2022-07-29T12:41:29;4.97;;;2.50;;
5900;SDS011;2976;49.764;9.796;2022-07-29T12:43:55;11.53;;;2.30;;
5900;SDS011;2976;49.764;9.796;2022-07-29T12:46:21;2.37;;;2.17;;
5900;SDS011;2976;49.764;9.796;2022-07-29T12:48:49;4.30;;;2.07;;
5900;SDS011;2976;49.764;9.796;2022-07-29T12:51:29;3.00;;;2.50;;
5900;SDS011;2976;49.764;9.796;2022-07-29T12:54:03;7.50;;;2.30;;
5900;SDS011;2976;49.764;9.796;2022-07-29T12:56:38;2.83;;;2.17;;
5900;SDS011;2976;49.764;9.796;2022-07-29T12:59:20;3.27;;;2.73;;
5900;SDS011;2976;49.764;9.796;2022-07-29T13:01:47;4.73;;;2.10;;
5900;SDS011;2976;49.764;9.796;2022-07-29T13:04:27;6.43;;;2.20;;
5900;SDS011;2976;49.764;9.796;2022-07-29T13:09:35;4.53;;;2.35;;
5900;SDS011;2976;49.764;9.796;2022-07-29T13:12:09;2.77;;;2.00;;
5900;SDS011;2976;49.764;9.796;2022-07-29T13:22:03;4.30;;;2.70;;
5900;SDS011;2976;49.764;9.796;2022-07-29T13:24:29;3.37;;;2.50;;
5900;SDS011;2976;49.764;9.796;2022-07-29T13:26:55;4.20;;;3.30;;
5900;SDS011;2976;49.764;9.796;2022-07-29T13:29:20;7.80;;;3.37;;
5900;SDS011;2976;49.764;9.796;2022-07-29T13:31:46;4.20;;;3.40;;
5900;SDS011;2976;49.764;9.796;2022-07-29T13:34:11;6.97;;;2.63;;
5900;SDS011;2976;49.764;9.796;2022-07-29T13:36:37;6.50;;;3.10;;
5900;SDS011;2976;49.764;9.796;2022-07-29T13:39:03;4.00;;;3.67;;
5900;SDS011;2976;49.764;9.796;2022-07-29T13:41:28;6.80;;;4.17;;
5900;SDS011;2976;49.764;9.796;2022-07-29T13:43:54;4.70;;;4.07;;
5900;SDS011;2976;49.764;9.796;2022-07-29T13:46:20;5.07;;;3.60;;
5900;SDS011;2976;49.764;9.796;2022-07-29T13:48:46;5.90;;;3.90;;
5900;SDS011;2976;49.764;9.796;2022-07-29T13:51:11;8.23;;;4.10;;
5900;SDS011;2976;49.764;9.796;2022-07-29T13:53:38;5.47;;;3.80;;
5900;SDS011;2976;49.764;9.796;2022-07-29T13:56:03;5.83;;;3.83;;
5900;SDS011;2976;49.764;9.796;2022-07-29T13:58:31;9.57;;;3.57;;
5900;SDS011;2976;49.764;9.796;2022-07-29T14:00:58;9.10;;;3.83;;
5900;SDS011;2976;49.764;9.796;2022-07-29T14:03:24;4.57;;;3.97;;
5900;SDS011;2976;49.764;9.796;2022-07-29T14:05:49;7.67;;;3.87;;
5900;SDS011;2976;49.764;9.796;2022-07-29T14:08:15;6.60;;;3.90;;
5900;SDS011;2976;49.764;9.796;2022-07-29T14:10:41;11.70;;;4.80;;
5900;SDS011;2976;49.764;9.796;2022-07-29T14:13:06;4.63;;;3.90;;
5900;SDS011;2976;49.764;9.796;2022-07-29T14:15:32;6.50;;;4.70;;
5900;SDS011;2976;49.764;9.796;2022-07-29T14:17:58;12.23;;;4.80;;
5900;SDS011;2976;49.764;9.796;2022-07-29T14:20:23;8.07;;;4.63;;
5900;SDS011;2976;49.764;9.796;2022-07-29T14:22:49;7.20;;;4.83;;
5900;SDS011;2976;49.764;9.796;2022-07-29T14:25:14;8.03;;;6.03;;
5900;SDS011;2976;49.764;9.796;2022-07-29T14:27:40;7.60;;;5.00;;
5900;SDS011;2976;49.764;9.796;2022-07-29T14:30:06;5.50;;;5.00;;
5900;SDS011;2976;49.764;9.796;2022-07-29T14:32:32;9.87;;;4.70;;
5900;SDS011;2976;49.764;9.796;2022-07-29T14:34:58;7.50;;;4.77;;
5900;SDS011;2976;49.764;9.796;2022-07-29T14:37:23;11.73;;;5.20;;
5900;SDS011;2976;49.764;9.796;2022-07-29T14:39:48;5.47;;;4.10;;
5900;SDS011;2976;49.764;9.796;2022-07-29T14:42:15;6.83;;;4.83;;
5900;SDS011;2976;49.764;9.796;2022-07-29T14:44:40;15.40;;;4.73;;
5900;SDS011;2976;49.764;9.796;2022-07-29T14:47:06;13.07;;;5.10;;
5900;SDS011;2976;49.764;9.796;2022-07-29T14:49:31;3.87;;;3.40;;
5900;SDS011;2976;49.764;9.796;2022-07-29T14:51:57;5.40;;;3.43;;
5900;SDS011;2976;49.764;9.796;2022-07-29T14:54:22;3.50;;;3.03;;
5900;SDS011;2976;49.764;9.796;2022-07-29T14:56:48;5.47;;;3.70;;
5900;SDS011;2976;49.764;9.796;2022-07-29T14:59:16;8.40;;;4.20;;
5900;SDS011;2976;49.764;9.796;2022-07-29T15:01:41;7.97;;;4.23;;
5900;SDS011;2976;49.764;9.796;2022-07-29T15:04:08;3.63;;;3.33;;
5900;SDS011;2976;49.764;9.796;2022-07-29T15:06:33;6.20;;;3.40;;
5900;SDS011;2976;49.764;9.796;2022-07-29T15:08:59;6.43;;;3.60;;
5900;SDS011;2976;49.764;9.796;2022-07-29T15:11:24;6.63;;;3.70;;
5900;SDS011;2976;49.764;9.796;2022-07-29T15:13:50;9.77;;;3.47;;
5900;SDS011;2976;49.764;9.796;2022-07-29T15:16:16;3.73;;;3.43;;
5900;SDS011;2976;49.764;9.796;2022-07-29T15:18:41;9.57;;;3.73;;
5900;SDS011;2976;49.764;9.796;2022-07-29T15:21:07;4.70;;;3.20;;
5900;SDS011;2976;49.764;9.796;2022-07-29T15:23:33;5.90;;;3.90;;
5900;SDS011;2976;49.764;9.796;2022-07-29T15:26:01;7.50;;;4.37;;
5900;SDS011;2976;49.764;9.796;2022-07-29T15:28:27;4.00;;;3.10;;
5900;SDS011;2976;49.764;9.796;2022-07-29T15:30:52;8.13;;;4.77;;
5900;SDS011;2976;49.764;9.796;2022-07-29T15:33:19;7.70;;;4.70;;
5900;SDS011;2976;49.764;9.796;2022-07-29T15:35:44;6.40;;;4.40;;
5900;SDS011;2976;49.764;9.796;2022-07-29T15:38:10;8.57;;;3.10;;
5900;SDS011;2976;49.764;9.796;2022-07-29T15:40:38;4.23;;;3.90;;
5900;SDS011;2976;49.764;9.796;2022-07-29T15:43:08;6.07;;;3.67;;
5900;SDS011;2976;49.764;9.796;2022-07-29T15:45:37;4.00;;;3.60;;
5900;SDS011;2976;49.764;9.796;2022-07-29T15:48:04;7.67;;;4.70;;
5900;SDS011;2976;49.764;9.796;2022-07-29T15:50:31;7.60;;;4.13;;
5900;SDS011;2976;49.764;9.796;2022-07-29T15:52:57;7.67;;;4.43;;
5900;SDS011;2976;49.764;9.796;2022-07-29T15:55:23;6.47;;;4.67;;
5900;SDS011;2976;49.764;9.796;2022-07-29T15:57:48;10.23;;;5.00;;
5900;SDS011;2976;49.764;9.796;2022-07-29T16:00:15;6.10;;;4.43;;
5900;SDS011;2976;49.764;9.796;2022-07-29T16:02:41;12.23;;;4.80;;
5900;SDS011;2976;49.764;9.796;2022-07-29T16:05:07;7.27;;;5.20;;
5900;SDS011;2976;49.764;9.796;2022-07-29T16:07:33;6.30;;;4.43;;
5900;SDS011;2976;49.764;9.796;2022-07-29T16:09:59;7.70;;;4.40;;
5900;SDS011;2976;49.764;9.796;2022-07-29T16:12:24;11.37;;;5.17;;
5900;SDS011;2976;49.764;9.796;2022-07-29T16:14:50;6.10;;;5.20;;
5900;SDS011;2976;49.764;9.796;2022-07-29T16:17:16;10.37;;;5.07;;
5900;SDS011;2976;49.764;9.796;2022-07-29T16:19:42;6.20;;;3.90;;